sensor_id;sensor_type;location;lat;lon;timestamp;temperature;humidity
36690;DHT22;22676;51.120;3.702;2024-03-02T00:01:57;23.00;46.00
36690;DHT22;22676;51.120;3.702;2024-03-02T00:04:22;23.00;46.30
36690;DHT22;22676;51.120;3.702;2024-03-02T00:06:47;23.00;46.40
36690;DHT22;22676;51.120;3.702;2024-03-02T00:09:16;23.00;46.40
36690;DHT22;22676;51.120;3.702;2024-03-02T00:11:42;23.00;46.50
36690;DHT22;22676;51.120;3.702;2024-03-02T00:14:09;23.00;46.60
36690;DHT22;22676;51.120;3.702;2024-03-02T00:16:34;23.00;45.80
36690;DHT22;22676;51.120;3.702;2024-03-02T00:19:01;22.90;45.20
36690;DHT22;22676;51.120;3.702;2024-03-02T00:21:27;22.80;45.40
36690;DHT22;22676;51.120;3.702;2024-03-02T00:23:55;22.70;45.80
36690;DHT22;22676;51.120;3.702;2024-03-02T00:26:20;22.70;46.10
36690;DHT22;22676;51.120;3.702;2024-03-02T00:28:46;22.60;46.30
36690;DHT22;22676;51.120;3.702;2024-03-02T00:31:12;22.60;46.40
36690;DHT22;22676;51.120;3.702;2024-03-02T00:36:06;22.70;46.40
36690;DHT22;22676;51.120;3.702;2024-03-02T00:38:32;22.70;46.40
36690;DHT22;22676;51.120;3.702;2024-03-02T00:40:59;22.70;46.30
36690;DHT22;22676;51.120;3.702;2024-03-02T00:46:06;22.80;46.30
36690;DHT22;22676;51.120;3.702;2024-03-02T00:48:31;22.80;46.30
36690;DHT22;22676;51.120;3.702;2024-03-02T00:50:58;22.80;46.30
36690;DHT22;22676;51.120;3.702;2024-03-02T00:53:24;22.80;46.30
36690;DHT22;22676;51.120;3.702;2024-03-02T00:55:51;22.80;46.40
36690;DHT22;22676;51.120;3.702;2024-03-02T00:58:16;22.80;45.90
36690;DHT22;22676;51.120;3.702;2024-03-02T01:00:42;22.80;45.80
36690;DHT22;22676;51.120;3.702;2024-03-02T01:03:07;22.80;46.00
36690;DHT22;22676;51.120;3.702;2024-03-02T01:05:33;22.80;46.10
36690;DHT22;22676;51.120;3.702;2024-03-02T01:07:59;22.80;45.90
36690;DHT22;22676;51.120;3.702;2024-03-02T01:10:24;22.80;45.90
36690;DHT22;22676;51.120;3.702;2024-03-02T01:12:51;22.80;45.90
36690;DHT22;22676;51.120;3.702;2024-03-02T01:15:16;22.80;45.90
36690;DHT22;22676;51.120;3.702;2024-03-02T01:17:42;22.80;45.90
36690;DHT22;22676;51.120;3.702;2024-03-02T01:20:08;22.80;46.00
36690;DHT22;22676;51.120;3.702;2024-03-02T01:22:33;22.80;46.10
36690;DHT22;22676;51.120;3.702;2024-03-02T01:24:59;22.80;46.10
36690;DHT22;22676;51.120;3.702;2024-03-02T01:27:24;22.80;46.10
36690;DHT22;22676;51.120;3.702;2024-03-02T01:29:50;22.80;46.10
36690;DHT22;22676;51.120;3.702;2024-03-02T01:32:15;22.80;46.10
36690;DHT22;22676;51.120;3.702;2024-03-02T01:34:41;22.80;46.20
36690;DHT22;22676;51.120;3.702;2024-03-02T01:37:06;22.80;46.20
36690;DHT22;22676;51.120;3.702;2024-03-02T01:39:32;22.80;46.10
36690;DHT22;22676;51.120;3.702;2024-03-02T01:41:57;22.80;46.10
36690;DHT22;22676;51.120;3.702;2024-03-02T01:44:23;22.80;46.10
36690;DHT22;22676;51.120;3.702;2024-03-02T01:46:48;22.80;46.10
36690;DHT22;22676;51.120;3.702;2024-03-02T01:49:14;22.80;46.10
36690;DHT22;22676;51.120;3.702;2024-03-02T01:51:39;22.90;46.20
36690;DHT22;22676;51.120;3.702;2024-03-02T01:54:05;22.90;46.20
36690;DHT22;22676;51.120;3.702;2024-03-02T01:56:30;22.80;45.80
36690;DHT22;22676;51.120;3.702;2024-03-02T01:58:56;22.90;45.60
36690;DHT22;22676;51.120;3.702;2024-03-02T02:01:21;22.90;45.50
36690;DHT22;22676;51.120;3.702;2024-03-02T02:03:47;22.90;45.60
36690;DHT22;22676;51.120;3.702;2024-03-02T02:06:12;22.90;45.60
36690;DHT22;22676;51.120;3.702;2024-03-02T02:08:38;22.90;45.50
36690;DHT22;22676;51.120;3.702;2024-03-02T02:11:03;22.90;45.50
36690;DHT22;22676;51.120;3.702;2024-03-02T02:13:29;22.90;45.60
36690;DHT22;22676;51.120;3.702;2024-03-02T02:15:54;22.90;45.60
36690;DHT22;22676;51.120;3.702;2024-03-02T02:18:20;22.90;45.70
36690;DHT22;22676;51.120;3.702;2024-03-02T02:20:45;22.90;45.60
36690;DHT22;22676;51.120;3.702;2024-03-02T02:23:11;23.00;45.50
36690;DHT22;22676;51.120;3.702;2024-03-02T02:25:38;23.00;45.50
36690;DHT22;22676;51.120;3.702;2024-03-02T02:28:04;23.00;45.50
36690;DHT22;22676;51.120;3.702;2024-03-02T02:30:30;23.00;45.50
36690;DHT22;22676;51.120;3.702;2024-03-02T02:32:56;23.00;45.50
36690;DHT22;22676;51.120;3.702;2024-03-02T02:35:22;23.00;45.50
36690;DHT22;22676;51.120;3.702;2024-03-02T02:37:49;22.90;45.50
36690;DHT22;22676;51.120;3.702;2024-03-02T02:40:15;22.90;45.50
36690;DHT22;22676;51.120;3.702;2024-03-02T02:42:41;22.90;45.60
36690;DHT22;22676;51.120;3.702;2024-03-02T02:45:06;22.90;45.70
36690;DHT22;22676;51.120;3.702;2024-03-02T02:47:32;22.80;45.70
36690;DHT22;22676;51.120;3.702;2024-03-02T02:50:01;22.80;45.80
36690;DHT22;22676;51.120;3.702;2024-03-02T02:52:30;22.70;45.90
36690;DHT22;22676;51.120;3.702;2024-03-02T02:54:58;22.70;46.00
36690;DHT22;22676;51.120;3.702;2024-03-02T02:57:23;22.60;45.60
36690;DHT22;22676;51.120;3.702;2024-03-02T02:59:49;22.60;45.50
36690;DHT22;22676;51.120;3.702;2024-03-02T03:02:14;22.60;45.60
36690;DHT22;22676;51.120;3.702;2024-03-02T03:04:40;22.50;45.90
36690;DHT22;22676;51.120;3.702;2024-03-02T03:07:05;22.50;45.90
36690;DHT22;22676;51.120;3.702;2024-03-02T03:09:31;22.50;46.00
36690;DHT22;22676;51.120;3.702;2024-03-02T03:11:57;22.40;46.00
36690;DHT22;22676;51.120;3.702;2024-03-02T03:14:23;22.30;46.00
36690;DHT22;22676;51.120;3.702;2024-03-02T03:16:48;22.40;46.20
36690;DHT22;22676;51.120;3.702;2024-03-02T03:19:14;22.30;46.20
36690;DHT22;22676;51.120;3.702;2024-03-02T03:21:39;22.30;46.30
36690;DHT22;22676;51.120;3.702;2024-03-02T03:24:05;22.20;46.40
36690;DHT22;22676;51.120;3.702;2024-03-02T03:26:30;22.20;46.50
36690;DHT22;22676;51.120;3.702;2024-03-02T03:28:56;22.20;46.60
36690;DHT22;22676;51.120;3.702;2024-03-02T03:31:21;22.20;46.70
36690;DHT22;22676;51.120;3.702;2024-03-02T03:33:47;22.20;46.80
36690;DHT22;22676;51.120;3.702;2024-03-02T03:36:12;22.10;46.80
36690;DHT22;22676;51.120;3.702;2024-03-02T03:38:38;22.10;46.80
36690;DHT22;22676;51.120;3.702;2024-03-02T03:41:03;22.10;46.80
36690;DHT22;22676;51.120;3.702;2024-03-02T03:43:29;22.10;46.80
36690;DHT22;22676;51.120;3.702;2024-03-02T03:45:54;22.10;46.90
36690;DHT22;22676;51.120;3.702;2024-03-02T03:48:20;22.10;46.80
36690;DHT22;22676;51.120;3.702;2024-03-02T03:50:45;22.10;46.80
36690;DHT22;22676;51.120;3.702;2024-03-02T03:53:11;22.10;46.80
36690;DHT22;22676;51.120;3.702;2024-03-02T03:55:37;22.10;46.90
36690;DHT22;22676;51.120;3.702;2024-03-02T03:58:02;22.00;46.30
36690;DHT22;22676;51.120;3.702;2024-03-02T04:00:28;22.00;46.10
36690;DHT22;22676;51.120;3.702;2024-03-02T04:02:53;22.00;46.30
36690;DHT22;22676;51.120;3.702;2024-03-02T04:05:19;22.00;46.50
36690;DHT22;22676;51.120;3.702;2024-03-02T04:07:44;22.00;46.50
36690;DHT22;22676;51.120;3.702;2024-03-02T04:10:10;21.90;46.40
36690;DHT22;22676;51.120;3.702;2024-03-02T04:12:36;21.90;46.30
36690;DHT22;22676;51.120;3.702;2024-03-02T04:15:03;21.90;46.50
36690;DHT22;22676;51.120;3.702;2024-03-02T04:17:29;21.90;46.50
36690;DHT22;22676;51.120;3.702;2024-03-02T04:19:55;21.90;46.50
36690;DHT22;22676;51.120;3.702;2024-03-02T04:22:20;21.90;46.50
36690;DHT22;22676;51.120;3.702;2024-03-02T04:24:46;21.90;46.60
36690;DHT22;22676;51.120;3.702;2024-03-02T04:27:11;21.90;46.60
36690;DHT22;22676;51.120;3.702;2024-03-02T04:29:37;21.90;46.70
36690;DHT22;22676;51.120;3.702;2024-03-02T04:32:02;21.80;46.70
36690;DHT22;22676;51.120;3.702;2024-03-02T04:34:28;21.80;46.70
36690;DHT22;22676;51.120;3.702;2024-03-02T04:36:53;21.80;46.70
36690;DHT22;22676;51.120;3.702;2024-03-02T04:39:19;21.80;46.70
36690;DHT22;22676;51.120;3.702;2024-03-02T04:41:44;21.80;47.30
36690;DHT22;22676;51.120;3.702;2024-03-02T04:44:10;21.80;46.80
36690;DHT22;22676;51.120;3.702;2024-03-02T04:46:35;21.80;46.80
36690;DHT22;22676;51.120;3.702;2024-03-02T04:49:01;21.80;47.40
36690;DHT22;22676;51.120;3.702;2024-03-02T04:51:26;21.80;46.80
36690;DHT22;22676;51.120;3.702;2024-03-02T04:53:52;21.70;46.80
36690;DHT22;22676;51.120;3.702;2024-03-02T04:56:17;21.80;46.60
36690;DHT22;22676;51.120;3.702;2024-03-02T04:58:45;21.80;46.40
36690;DHT22;22676;51.120;3.702;2024-03-02T05:01:11;21.70;46.10
36690;DHT22;22676;51.120;3.702;2024-03-02T05:03:36;21.70;46.40
36690;DHT22;22676;51.120;3.702;2024-03-02T05:06:02;21.70;46.50
36690;DHT22;22676;51.120;3.702;2024-03-02T05:08:28;21.70;46.40
36690;DHT22;22676;51.120;3.702;2024-03-02T05:10:53;21.70;46.40
36690;DHT22;22676;51.120;3.702;2024-03-02T05:13:19;21.60;46.40
36690;DHT22;22676;51.120;3.702;2024-03-02T05:15:46;21.70;46.40
36690;DHT22;22676;51.120;3.702;2024-03-02T05:18:12;21.70;46.50
36690;DHT22;22676;51.120;3.702;2024-03-02T05:20:37;21.60;46.40
36690;DHT22;22676;51.120;3.702;2024-03-02T05:23:03;21.70;46.50
36690;DHT22;22676;51.120;3.702;2024-03-02T05:25:28;21.60;46.50
36690;DHT22;22676;51.120;3.702;2024-03-02T05:27:54;21.70;46.50
36690;DHT22;22676;51.120;3.702;2024-03-02T05:30:19;21.60;46.60
36690;DHT22;22676;51.120;3.702;2024-03-02T05:32:45;21.60;46.60
36690;DHT22;22676;51.120;3.702;2024-03-02T05:35:10;21.60;46.50
36690;DHT22;22676;51.120;3.702;2024-03-02T05:37:38;21.60;46.50
36690;DHT22;22676;51.120;3.702;2024-03-02T05:40:04;21.70;46.60
36690;DHT22;22676;51.120;3.702;2024-03-02T05:42:31;21.60;46.60
36690;DHT22;22676;51.120;3.702;2024-03-02T05:44:56;21.60;46.60
36690;DHT22;22676;51.120;3.702;2024-03-02T05:47:22;21.60;46.60
36690;DHT22;22676;51.120;3.702;2024-03-02T05:49:47;21.60;46.50
36690;DHT22;22676;51.120;3.702;2024-03-02T05:52:13;21.60;46.50
36690;DHT22;22676;51.120;3.702;2024-03-02T05:54:38;21.60;46.60
36690;DHT22;22676;51.120;3.702;2024-03-02T05:57:04;21.60;46.10
36690;DHT22;22676;51.120;3.702;2024-03-02T05:59:50;21.60;45.90
36690;DHT22;22676;51.120;3.702;2024-03-02T06:02:15;21.50;46.00
36690;DHT22;22676;51.120;3.702;2024-03-02T06:04:41;21.60;46.30
36690;DHT22;22676;51.120;3.702;2024-03-02T06:07:06;21.50;46.30
36690;DHT22;22676;51.120;3.702;2024-03-02T06:09:32;21.50;46.20
36690;DHT22;22676;51.120;3.702;2024-03-02T06:11:57;21.50;46.10
36690;DHT22;22676;51.120;3.702;2024-03-02T06:14:23;21.50;46.10
36690;DHT22;22676;51.120;3.702;2024-03-02T06:16:48;21.50;46.20
36690;DHT22;22676;51.120;3.702;2024-03-02T06:19:13;21.50;46.10
36690;DHT22;22676;51.120;3.702;2024-03-02T06:21:39;21.50;46.20
36690;DHT22;22676;51.120;3.702;2024-03-02T06:24:05;21.50;46.20
36690;DHT22;22676;51.120;3.702;2024-03-02T06:26:31;21.50;46.10
36690;DHT22;22676;51.120;3.702;2024-03-02T06:28:57;21.50;46.30
36690;DHT22;22676;51.120;3.702;2024-03-02T06:31:22;21.50;46.10
36690;DHT22;22676;51.120;3.702;2024-03-02T06:33:48;21.60;45.90
36690;DHT22;22676;51.120;3.702;2024-03-02T06:36:13;21.60;45.60
36690;DHT22;22676;51.120;3.702;2024-03-02T06:38:40;21.80;45.40
36690;DHT22;22676;51.120;3.702;2024-03-02T06:41:06;21.90;45.00
36690;DHT22;22676;51.120;3.702;2024-03-02T06:43:32;22.00;44.70
36690;DHT22;22676;51.120;3.702;2024-03-02T06:45:57;22.10;44.60
36690;DHT22;22676;51.120;3.702;2024-03-02T06:48:23;22.20;44.50
36690;DHT22;22676;51.120;3.702;2024-03-02T06:50:49;22.30;44.20
36690;DHT22;22676;51.120;3.702;2024-03-02T06:53:15;22.30;44.20
36690;DHT22;22676;51.120;3.702;2024-03-02T06:55:46;22.40;44.20
36690;DHT22;22676;51.120;3.702;2024-03-02T06:58:12;22.50;43.90
36690;DHT22;22676;51.120;3.702;2024-03-02T07:03:13;22.60;43.70
36690;DHT22;22676;51.120;3.702;2024-03-02T07:05:39;22.70;43.70
36690;DHT22;22676;51.120;3.702;2024-03-02T07:08:04;22.70;43.60
36690;DHT22;22676;51.120;3.702;2024-03-02T07:10:31;22.80;43.60
36690;DHT22;22676;51.120;3.702;2024-03-02T07:12:56;22.80;43.50
36690;DHT22;22676;51.120;3.702;2024-03-02T07:15:22;22.90;43.60
36690;DHT22;22676;51.120;3.702;2024-03-02T07:18:08;22.90;43.60
36690;DHT22;22676;51.120;3.702;2024-03-02T07:20:33;23.00;43.60
36690;DHT22;22676;51.120;3.702;2024-03-02T07:22:59;23.10;43.60
36690;DHT22;22676;51.120;3.702;2024-03-02T07:25:24;23.10;43.60
36690;DHT22;22676;51.120;3.702;2024-03-02T07:27:50;23.20;43.70
36690;DHT22;22676;51.120;3.702;2024-03-02T07:30:16;23.30;43.60
36690;DHT22;22676;51.120;3.702;2024-03-02T07:32:41;23.40;43.60
36690;DHT22;22676;51.120;3.702;2024-03-02T07:35:13;23.40;43.60
36690;DHT22;22676;51.120;3.702;2024-03-02T07:37:40;23.50;43.50
36690;DHT22;22676;51.120;3.702;2024-03-02T07:40:06;23.60;43.40
36690;DHT22;22676;51.120;3.702;2024-03-02T07:42:34;23.60;43.30
36690;DHT22;22676;51.120;3.702;2024-03-02T07:45:00;23.70;43.30
36690;DHT22;22676;51.120;3.702;2024-03-02T07:47:25;23.80;43.30
36690;DHT22;22676;51.120;3.702;2024-03-02T07:49:51;23.80;43.10
36690;DHT22;22676;51.120;3.702;2024-03-02T07:52:16;23.90;43.10
36690;DHT22;22676;51.120;3.702;2024-03-02T07:54:42;23.90;43.00
36690;DHT22;22676;51.120;3.702;2024-03-02T07:57:07;23.90;42.50
36690;DHT22;22676;51.120;3.702;2024-03-02T07:59:33;23.80;42.20
36690;DHT22;22676;51.120;3.702;2024-03-02T08:01:59;23.70;42.50
36690;DHT22;22676;51.120;3.702;2024-03-02T08:04:26;23.60;42.90
36690;DHT22;22676;51.120;3.702;2024-03-02T08:06:51;23.50;43.30
36690;DHT22;22676;51.120;3.702;2024-03-02T08:09:17;23.40;43.30
36690;DHT22;22676;51.120;3.702;2024-03-02T08:11:42;23.40;43.40
36690;DHT22;22676;51.120;3.702;2024-03-02T08:14:08;23.40;43.50
36690;DHT22;22676;51.120;3.702;2024-03-02T08:16:33;23.40;43.50
36690;DHT22;22676;51.120;3.702;2024-03-02T08:18:59;23.40;43.60
36690;DHT22;22676;51.120;3.702;2024-03-02T08:21:25;23.30;43.50
36690;DHT22;22676;51.120;3.702;2024-03-02T08:23:51;23.30;43.60
36690;DHT22;22676;51.120;3.702;2024-03-02T08:26:16;23.30;43.80
36690;DHT22;22676;51.120;3.702;2024-03-02T08:28:42;23.20;43.80
36690;DHT22;22676;51.120;3.702;2024-03-02T08:31:08;23.20;43.90
36690;DHT22;22676;51.120;3.702;2024-03-02T08:33:33;23.20;43.90
36690;DHT22;22676;51.120;3.702;2024-03-02T08:35:59;23.20;44.00
36690;DHT22;22676;51.120;3.702;2024-03-02T08:38:24;23.20;44.10
36690;DHT22;22676;51.120;3.702;2024-03-02T08:40:50;23.10;44.10
36690;DHT22;22676;51.120;3.702;2024-03-02T08:43:15;23.10;44.00
36690;DHT22;22676;51.120;3.702;2024-03-02T08:45:41;23.10;44.00
36690;DHT22;22676;51.120;3.702;2024-03-02T08:48:07;23.10;44.20
36690;DHT22;22676;51.120;3.702;2024-03-02T08:50:34;23.10;44.20
36690;DHT22;22676;51.120;3.702;2024-03-02T08:52:59;23.10;44.20
36690;DHT22;22676;51.120;3.702;2024-03-02T08:55:25;23.00;44.20
36690;DHT22;22676;51.120;3.702;2024-03-02T08:57:50;23.00;44.00
36690;DHT22;22676;51.120;3.702;2024-03-02T09:00:16;23.00;43.80
36690;DHT22;22676;51.120;3.702;2024-03-02T09:02:46;23.00;43.40
36690;DHT22;22676;51.120;3.702;2024-03-02T09:05:11;22.90;43.50
36690;DHT22;22676;51.120;3.702;2024-03-02T09:07:37;22.90;43.70
36690;DHT22;22676;51.120;3.702;2024-03-02T09:10:06;22.80;43.70
36690;DHT22;22676;51.120;3.702;2024-03-02T09:12:32;22.80;43.60
36690;DHT22;22676;51.120;3.702;2024-03-02T09:14:57;22.80;43.70
36690;DHT22;22676;51.120;3.702;2024-03-02T09:17:23;22.70;43.90
36690;DHT22;22676;51.120;3.702;2024-03-02T09:19:48;22.70;44.20
36690;DHT22;22676;51.120;3.702;2024-03-02T09:22:21;22.70;44.20
36690;DHT22;22676;51.120;3.702;2024-03-02T09:24:46;22.70;43.90
36690;DHT22;22676;51.120;3.702;2024-03-02T09:27:12;22.70;44.10
36690;DHT22;22676;51.120;3.702;2024-03-02T09:29:37;22.70;43.90
36690;DHT22;22676;51.120;3.702;2024-03-02T09:32:03;22.60;43.80
36690;DHT22;22676;51.120;3.702;2024-03-02T09:34:29;22.60;43.50
36690;DHT22;22676;51.120;3.702;2024-03-02T09:36:54;22.60;43.60
36690;DHT22;22676;51.120;3.702;2024-03-02T09:39:20;22.60;44.00
36690;DHT22;22676;51.120;3.702;2024-03-02T09:41:45;22.60;43.80
36690;DHT22;22676;51.120;3.702;2024-03-02T09:44:12;22.60;43.60
36690;DHT22;22676;51.120;3.702;2024-03-02T09:46:37;22.50;43.60
36690;DHT22;22676;51.120;3.702;2024-03-02T09:49:03;22.50;43.50
36690;DHT22;22676;51.120;3.702;2024-03-02T09:51:28;22.40;43.60
36690;DHT22;22676;51.120;3.702;2024-03-02T09:53:55;22.40;43.60
36690;DHT22;22676;51.120;3.702;2024-03-02T09:56:21;22.50;43.50
36690;DHT22;22676;51.120;3.702;2024-03-02T09:58:46;22.40;43.30
36690;DHT22;22676;51.120;3.702;2024-03-02T10:01:12;22.40;43.10
36690;DHT22;22676;51.120;3.702;2024-03-02T10:03:38;22.40;43.30
36690;DHT22;22676;51.120;3.702;2024-03-02T10:08:45;22.30;43.70
36690;DHT22;22676;51.120;3.702;2024-03-02T10:11:11;22.30;43.60
36690;DHT22;22676;51.120;3.702;2024-03-02T10:13:36;22.30;43.50
36690;DHT22;22676;51.120;3.702;2024-03-02T10:16:11;22.40;43.60
36690;DHT22;22676;51.120;3.702;2024-03-02T10:18:37;22.40;43.70
36690;DHT22;22676;51.120;3.702;2024-03-02T10:21:15;22.30;43.30
36690;DHT22;22676;51.120;3.702;2024-03-02T10:23:40;22.30;43.30
36690;DHT22;22676;51.120;3.702;2024-03-02T10:26:16;22.20;43.20
36690;DHT22;22676;51.120;3.702;2024-03-02T10:28:48;22.20;43.10
36690;DHT22;22676;51.120;3.702;2024-03-02T10:31:13;22.20;43.60
36690;DHT22;22676;51.120;3.702;2024-03-02T10:33:39;22.20;43.50
36690;DHT22;22676;51.120;3.702;2024-03-02T10:36:05;22.10;43.90
36690;DHT22;22676;51.120;3.702;2024-03-02T10:38:30;22.10;43.80
36690;DHT22;22676;51.120;3.702;2024-03-02T10:40:57;22.10;44.00
36690;DHT22;22676;51.120;3.702;2024-03-02T10:43:25;22.10;44.40
36690;DHT22;22676;51.120;3.702;2024-03-02T10:45:51;22.20;44.50
36690;DHT22;22676;51.120;3.702;2024-03-02T10:48:17;22.20;45.40
36690;DHT22;22676;51.120;3.702;2024-03-02T10:50:43;22.20;45.80
36690;DHT22;22676;51.120;3.702;2024-03-02T10:53:09;22.20;46.70
36690;DHT22;22676;51.120;3.702;2024-03-02T10:55:34;22.20;47.10
36690;DHT22;22676;51.120;3.702;2024-03-02T10:58:00;22.20;47.10
36690;DHT22;22676;51.120;3.702;2024-03-02T11:00:29;22.20;48.00
36690;DHT22;22676;51.120;3.702;2024-03-02T11:02:58;22.20;47.10
36690;DHT22;22676;51.120;3.702;2024-03-02T11:05:27;22.20;48.40
36690;DHT22;22676;51.120;3.702;2024-03-02T11:07:57;22.10;48.20
36690;DHT22;22676;51.120;3.702;2024-03-02T11:10:23;22.10;48.70
36690;DHT22;22676;51.120;3.702;2024-03-02T11:12:52;22.10;48.00
36690;DHT22;22676;51.120;3.702;2024-03-02T11:15:20;22.10;47.80
36690;DHT22;22676;51.120;3.702;2024-03-02T11:17:46;22.10;48.70
36690;DHT22;22676;51.120;3.702;2024-03-02T11:20:11;22.10;47.70
36690;DHT22;22676;51.120;3.702;2024-03-02T11:22:37;22.10;48.50
36690;DHT22;22676;51.120;3.702;2024-03-02T11:25:03;22.10;48.50
36690;DHT22;22676;51.120;3.702;2024-03-02T11:32:57;22.20;48.00
36690;DHT22;22676;51.120;3.702;2024-03-02T11:35:26;22.30;48.80
36690;DHT22;22676;51.120;3.702;2024-03-02T11:37:53;22.30;49.20
36690;DHT22;22676;51.120;3.702;2024-03-02T11:40:22;22.30;49.20
36690;DHT22;22676;51.120;3.702;2024-03-02T11:42:48;22.30;48.30
36690;DHT22;22676;51.120;3.702;2024-03-02T11:45:17;22.30;48.70
36690;DHT22;22676;51.120;3.702;2024-03-02T11:47:50;22.30;48.70
36690;DHT22;22676;51.120;3.702;2024-03-02T11:50:28;22.40;48.20
36690;DHT22;22676;51.120;3.702;2024-03-02T11:52:53;22.40;47.80
36690;DHT22;22676;51.120;3.702;2024-03-02T11:55:20;22.30;49.10
36690;DHT22;22676;51.120;3.702;2024-03-02T11:57:46;22.20;47.10
36690;DHT22;22676;51.120;3.702;2024-03-02T12:00:19;22.20;47.60
36690;DHT22;22676;51.120;3.702;2024-03-02T12:02:47;22.30;47.40
36690;DHT22;22676;51.120;3.702;2024-03-02T12:05:22;22.30;47.50
36690;DHT22;22676;51.120;3.702;2024-03-02T12:07:48;22.30;48.10
36690;DHT22;22676;51.120;3.702;2024-03-02T12:10:13;22.20;47.60
36690;DHT22;22676;51.120;3.702;2024-03-02T12:12:40;22.20;48.30
36690;DHT22;22676;51.120;3.702;2024-03-02T12:15:06;22.20;47.90
36690;DHT22;22676;51.120;3.702;2024-03-02T12:17:31;22.20;48.00
36690;DHT22;22676;51.120;3.702;2024-03-02T12:19:57;22.20;47.90
36690;DHT22;22676;51.120;3.702;2024-03-02T12:22:22;22.20;48.10
36690;DHT22;22676;51.120;3.702;2024-03-02T12:24:48;22.20;47.90
36690;DHT22;22676;51.120;3.702;2024-03-02T12:27:14;22.20;47.50
36690;DHT22;22676;51.120;3.702;2024-03-02T12:29:40;22.20;47.60
36690;DHT22;22676;51.120;3.702;2024-03-02T12:32:06;22.20;47.70
36690;DHT22;22676;51.120;3.702;2024-03-02T12:34:32;22.20;47.00
36690;DHT22;22676;51.120;3.702;2024-03-02T12:36:57;22.30;46.80
36690;DHT22;22676;51.120;3.702;2024-03-02T12:39:23;22.30;47.00
36690;DHT22;22676;51.120;3.702;2024-03-02T12:41:49;22.30;47.10
36690;DHT22;22676;51.120;3.702;2024-03-02T12:44:16;22.30;47.20
36690;DHT22;22676;51.120;3.702;2024-03-02T12:46:42;22.30;47.60
36690;DHT22;22676;51.120;3.702;2024-03-02T12:49:08;22.40;47.80
36690;DHT22;22676;51.120;3.702;2024-03-02T12:51:35;22.50;47.60
36690;DHT22;22676;51.120;3.702;2024-03-02T12:54:01;22.50;47.40
36690;DHT22;22676;51.120;3.702;2024-03-02T12:56:26;22.50;47.00
36690;DHT22;22676;51.120;3.702;2024-03-02T12:58:53;22.40;47.00
36690;DHT22;22676;51.120;3.702;2024-03-02T13:01:18;22.40;47.10
36690;DHT22;22676;51.120;3.702;2024-03-02T13:03:44;22.40;47.80
36690;DHT22;22676;51.120;3.702;2024-03-02T13:06:10;22.40;47.70
36690;DHT22;22676;51.120;3.702;2024-03-02T13:08:36;22.50;47.70
36690;DHT22;22676;51.120;3.702;2024-03-02T13:11:01;22.50;47.30
36690;DHT22;22676;51.120;3.702;2024-03-02T13:13:30;22.50;47.50
36690;DHT22;22676;51.120;3.702;2024-03-02T13:15:56;22.50;47.90
36690;DHT22;22676;51.120;3.702;2024-03-02T13:18:21;22.50;48.60
36690;DHT22;22676;51.120;3.702;2024-03-02T13:20:47;22.50;48.10
36690;DHT22;22676;51.120;3.702;2024-03-02T13:23:13;22.50;48.30
36690;DHT22;22676;51.120;3.702;2024-03-02T13:25:38;22.50;48.50
36690;DHT22;22676;51.120;3.702;2024-03-02T13:28:04;22.50;48.70
36690;DHT22;22676;51.120;3.702;2024-03-02T13:30:29;22.40;48.90
36690;DHT22;22676;51.120;3.702;2024-03-02T13:32:55;22.40;49.10
36690;DHT22;22676;51.120;3.702;2024-03-02T13:35:20;22.40;49.20
36690;DHT22;22676;51.120;3.702;2024-03-02T13:37:46;22.40;49.20
36690;DHT22;22676;51.120;3.702;2024-03-02T13:40:12;22.40;49.20
36690;DHT22;22676;51.120;3.702;2024-03-02T13:42:43;22.40;49.10
36690;DHT22;22676;51.120;3.702;2024-03-02T13:45:08;22.40;49.30
36690;DHT22;22676;51.120;3.702;2024-03-02T13:47:34;22.40;49.50
36690;DHT22;22676;51.120;3.702;2024-03-02T13:49:59;22.40;49.30
36690;DHT22;22676;51.120;3.702;2024-03-02T13:52:25;22.40;48.90
36690;DHT22;22676;51.120;3.702;2024-03-02T13:54:51;22.40;49.00
36690;DHT22;22676;51.120;3.702;2024-03-02T13:57:20;22.30;49.10
36690;DHT22;22676;51.120;3.702;2024-03-02T13:59:45;22.30;49.30
36690;DHT22;22676;51.120;3.702;2024-03-02T14:02:11;22.30;49.50
36690;DHT22;22676;51.120;3.702;2024-03-02T14:04:37;22.30;49.80
36690;DHT22;22676;51.120;3.702;2024-03-02T14:07:03;22.40;50.10
36690;DHT22;22676;51.120;3.702;2024-03-02T14:09:28;22.40;50.40
36690;DHT22;22676;51.120;3.702;2024-03-02T14:11:54;22.50;50.50
36690;DHT22;22676;51.120;3.702;2024-03-02T14:14:20;22.50;50.70
36690;DHT22;22676;51.120;3.702;2024-03-02T14:16:46;22.50;50.80
36690;DHT22;22676;51.120;3.702;2024-03-02T14:19:11;22.50;51.00
36690;DHT22;22676;51.120;3.702;2024-03-02T14:21:37;22.60;51.20
36690;DHT22;22676;51.120;3.702;2024-03-02T14:24:03;22.60;50.90
36690;DHT22;22676;51.120;3.702;2024-03-02T14:26:29;22.60;51.30
36690;DHT22;22676;51.120;3.702;2024-03-02T14:28:54;22.60;51.50
36690;DHT22;22676;51.120;3.702;2024-03-02T14:31:20;22.60;51.70
36690;DHT22;22676;51.120;3.702;2024-03-02T14:33:46;22.50;51.90
36690;DHT22;22676;51.120;3.702;2024-03-02T14:36:12;22.50;52.10
36690;DHT22;22676;51.120;3.702;2024-03-02T14:38:38;22.60;51.30
36690;DHT22;22676;51.120;3.702;2024-03-02T14:41:03;22.60;51.70
36690;DHT22;22676;51.120;3.702;2024-03-02T14:43:29;22.70;51.80
36690;DHT22;22676;51.120;3.702;2024-03-02T14:45:54;22.60;51.70
36690;DHT22;22676;51.120;3.702;2024-03-02T14:48:20;22.60;51.70
36690;DHT22;22676;51.120;3.702;2024-03-02T14:50:46;22.60;51.90
36690;DHT22;22676;51.120;3.702;2024-03-02T14:53:12;22.70;52.50
36690;DHT22;22676;51.120;3.702;2024-03-02T14:55:37;22.70;52.50
36690;DHT22;22676;51.120;3.702;2024-03-02T14:58:03;22.70;52.40
36690;DHT22;22676;51.120;3.702;2024-03-02T15:00:28;22.70;52.00
36690;DHT22;22676;51.120;3.702;2024-03-02T15:02:54;22.70;52.00
36690;DHT22;22676;51.120;3.702;2024-03-02T15:05:19;22.60;51.70
36690;DHT22;22676;51.120;3.702;2024-03-02T15:07:45;22.70;51.70
36690;DHT22;22676;51.120;3.702;2024-03-02T15:10:10;22.70;52.00
36690;DHT22;22676;51.120;3.702;2024-03-02T15:12:36;22.80;52.20
36690;DHT22;22676;51.120;3.702;2024-03-02T15:15:02;22.80;51.40
36690;DHT22;22676;51.120;3.702;2024-03-02T15:17:28;22.80;51.90
36690;DHT22;22676;51.120;3.702;2024-03-02T15:19:53;22.90;51.70
36690;DHT22;22676;51.120;3.702;2024-03-02T15:22:19;22.90;50.90
36690;DHT22;22676;51.120;3.702;2024-03-02T15:24:44;22.90;51.10
36690;DHT22;22676;51.120;3.702;2024-03-02T15:27:10;22.90;51.20
36690;DHT22;22676;51.120;3.702;2024-03-02T15:29:35;22.90;51.10
36690;DHT22;22676;51.120;3.702;2024-03-02T15:32:01;22.90;51.00
36690;DHT22;22676;51.120;3.702;2024-03-02T15:34:30;22.90;50.80
36690;DHT22;22676;51.120;3.702;2024-03-02T15:36:55;23.00;50.70
36690;DHT22;22676;51.120;3.702;2024-03-02T15:39:21;23.00;50.60